首页
METAR-TAF:

METAR-TAF

机场 :

大阪國際機場

大阪, 日本

纬度: 34-47N, 经度: 135-27E, 海拔: 12米

当前天气观测

该预报发布于27分钟前的00:00 UTC
风速2节,风向多变
温度 25°C
湿度 61%
气压 1016 hPa
能见度10公里或以上
少量云层高于2000英尺
多云层高于17000英尺

METAR: RJOO 240000Z VRB02KT 9999 FEW020 BKN170 25/17 Q1016 RMK 1CU020 5AC170 A3000

时间: 09:27 (00:27 UTC)

预报

该预报发布于1小时和16分钟前的23:11 UTC
预报有效从24日的 00点(UTC)到 25日的 06点(UTC)
风速4节,风向东转东北
能见度10公里或以上
少量云层高于3000英尺
成为
从 24日的 21点(UTC)到 25日的 00点(UTC)
风速7节,风向北转东北

TAF: RJOO 232311Z 2400/2506 07004KT 9999 FEW030 BECMG 2421/2500 02007KT

超过4000个机场的气象观测和天气预报(METAR&TAF报告)。

可查询的气象台以黄色和红色小点在地图上表示。

将鼠标移到小点上方,可查看气象台名称。

然后点击查看天气观测和预报。

如需切换地图:点击带黑十字的绿色按钮放大地图;点击带横线的绿色按钮缩小地图;或者点击绿色箭头查看邻近地区的地图。


METAR-TAF: